createdAt,value
2023-02-14T00:02:27.026Z,93.77
2023-02-14T00:07:31.456Z,94.09
2023-02-14T00:23:12.964Z,94.21
2023-02-14T00:28:16.197Z,94.38
2023-02-14T00:33:19.592Z,94.45
2023-02-14T00:38:23.166Z,94.53
2023-02-14T00:43:26.405Z,94.57
2023-02-14T00:48:29.649Z,94.79
2023-02-14T00:53:33.163Z,94.65
2023-02-14T00:58:36.698Z,94.80
2023-02-14T01:03:40.635Z,94.87
2023-02-14T01:08:44.315Z,95.15
2023-02-14T01:13:49.624Z,95.47
2023-02-14T01:18:53.764Z,95.87
2023-02-14T01:24:00.177Z,96.10
2023-02-14T01:29:05.465Z,96.20
2023-02-14T01:34:08.805Z,96.71
2023-02-14T01:39:14.413Z,96.90
2023-02-14T01:44:17.724Z,97.30
2023-02-14T01:49:27.370Z,97.59
2023-02-14T01:54:33.753Z,98.12
2023-02-14T01:59:40.102Z,98.46
2023-02-14T02:04:46.806Z,98.45
2023-02-14T02:09:55.448Z,98.81
2023-02-14T02:15:02.270Z,98.98
2023-02-14T02:20:44.484Z,99.23
2023-02-14T02:26:03.634Z,99.44
2023-02-14T02:31:16.250Z,99.40
2023-02-14T02:36:52.564Z,99.32
2023-02-14T02:42:25.200Z,99.89
2023-02-14T02:47:40.980Z,100.00
2023-02-14T02:53:02.843Z,100.00
2023-02-14T02:58:06.478Z,100.00
2023-02-14T03:03:29.827Z,100.00
2023-02-14T03:08:33.203Z,100.00
2023-02-14T03:13:54.798Z,100.00
2023-02-14T03:19:26.854Z,100.00
2023-02-14T03:24:46.391Z,100.00
2023-02-14T03:30:14.104Z,100.00
2023-02-14T03:35:30.881Z,100.00
2023-02-14T03:40:40.603Z,100.00
2023-02-14T03:45:54.853Z,100.00
2023-02-14T03:51:00.623Z,100.00
2023-02-14T03:56:18.857Z,100.00
2023-02-14T04:01:28.555Z,100.00
2023-02-14T04:06:31.992Z,100.00
2023-02-14T04:11:35.870Z,100.00
2023-02-14T04:16:58.156Z,100.00
2023-02-14T04:22:01.617Z,100.00
2023-02-14T04:27:11.166Z,100.00
2023-02-14T04:32:18.046Z,100.00
2023-02-14T04:37:21.427Z,100.00
2023-02-14T04:42:24.802Z,100.00
2023-02-14T04:47:28.087Z,100.00
2023-02-14T04:52:31.488Z,100.00
2023-02-14T04:57:34.811Z,100.00
2023-02-14T05:02:38.520Z,100.00
2023-02-14T05:07:47.852Z,100.00
2023-02-14T05:12:51.292Z,100.00
2023-02-14T05:17:54.636Z,100.00
2023-02-14T05:23:03.424Z,100.00
2023-02-14T05:28:07.172Z,100.00
2023-02-14T05:33:10.643Z,100.00
2023-02-14T05:38:14.221Z,100.00
2023-02-14T05:43:17.700Z,100.00
2023-02-14T05:48:21.356Z,100.00
2023-02-14T05:53:24.739Z,100.00
2023-02-14T05:58:28.344Z,100.00
2023-02-14T06:03:31.729Z,100.00
2023-02-14T06:08:35.033Z,100.00
2023-02-14T06:13:40.688Z,100.00
2023-02-14T06:18:44.203Z,100.00
2023-02-14T06:23:47.289Z,100.00
2023-02-14T06:28:54.510Z,100.00
2023-02-14T06:33:57.746Z,100.00
2023-02-14T06:39:00.995Z,100.00
2023-02-14T06:44:04.741Z,100.00
2023-02-14T06:49:10.082Z,100.00
2023-02-14T06:54:13.636Z,100.00
2023-02-14T06:59:16.970Z,100.00
2023-02-14T07:04:20.513Z,100.00
2023-02-14T07:09:24.025Z,100.00
2023-02-14T07:14:27.206Z,100.00
2023-02-14T07:19:30.377Z,100.00
2023-02-14T07:24:33.867Z,100.00
2023-02-14T07:29:37.582Z,100.00
2023-02-14T07:34:40.921Z,100.00
2023-02-14T07:39:45.640Z,100.00
2023-02-14T07:44:49.005Z,100.00
2023-02-14T07:49:52.188Z,100.00
2023-02-14T07:54:55.543Z,100.00
2023-02-14T07:59:58.702Z,100.00
2023-02-14T08:05:01.949Z,100.00
2023-02-14T08:10:06.150Z,100.00
2023-02-14T08:15:28.545Z,100.00
2023-02-14T08:20:31.879Z,100.00
2023-02-14T08:25:35.261Z,100.00
2023-02-14T08:30:38.431Z,100.00
2023-02-14T08:35:41.778Z,100.00
2023-02-14T08:40:45.097Z,100.00
2023-02-14T08:45:49.842Z,100.00
2023-02-14T08:50:53.381Z,100.00
2023-02-14T08:56:02.240Z,100.00
2023-02-14T09:01:17.415Z,100.00
2023-02-14T09:06:20.992Z,100.00
2023-02-14T09:11:25.851Z,100.00
2023-02-14T09:16:29.199Z,100.00
2023-02-14T09:21:32.462Z,100.00
2023-02-14T09:26:37.177Z,100.00
2023-02-14T09:31:40.579Z,100.00
2023-02-14T09:37:06.538Z,100.00
2023-02-14T09:42:51.939Z,100.00
2023-02-14T09:48:01.640Z,100.00
2023-02-14T09:53:16.608Z,100.00
2023-02-14T09:58:27.893Z,100.00
2023-02-14T10:04:09.424Z,100.00
2023-02-14T10:09:24.813Z,100.00
2023-02-14T10:14:33.981Z,100.00
2023-02-14T10:19:50.005Z,100.00
2023-02-14T10:25:02.034Z,100.00
2023-02-14T10:30:24.891Z,100.00
2023-02-14T10:35:52.678Z,100.00
2023-02-14T10:41:08.151Z,100.00
2023-02-14T10:46:43.101Z,100.00
2023-02-14T10:52:15.812Z,100.00
2023-02-14T10:57:27.840Z,100.00
2023-02-14T11:02:42.640Z,100.00
2023-02-14T11:07:46.183Z,100.00
2023-02-14T11:12:49.478Z,100.00
2023-02-14T11:18:12.671Z,100.00
2023-02-14T11:23:21.472Z,100.00
2023-02-14T11:28:28.347Z,100.00
2023-02-14T11:33:51.497Z,100.00
2023-02-14T11:39:06.692Z,100.00
2023-02-14T11:44:22.823Z,100.00
2023-02-14T11:49:32.287Z,100.00
2023-02-14T11:54:39.215Z,100.00
2023-02-14T11:59:45.579Z,100.00
2023-02-14T12:04:53.033Z,100.00
2023-02-14T12:10:11.119Z,100.00
2023-02-14T12:15:27.948Z,100.00
2023-02-14T12:20:44.397Z,100.00
2023-02-14T12:25:55.727Z,100.00
2023-02-14T12:30:59.582Z,100.00
2023-02-14T12:36:16.660Z,100.00
2023-02-14T12:41:41.034Z,100.00
2023-02-14T12:47:15.409Z,100.00
2023-02-14T12:52:33.601Z,100.00
2023-02-14T12:58:23.777Z,100.00
2023-02-14T13:03:56.701Z,100.00
2023-02-14T13:09:31.539Z,100.00
2023-02-14T13:15:15.224Z,99.91
2023-02-14T13:20:54.369Z,100.00
2023-02-14T13:26:04.220Z,100.00
2023-02-14T13:31:07.661Z,99.89
2023-02-14T13:36:13.792Z,99.98
2023-02-14T13:41:19.525Z,99.86
2023-02-14T13:46:46.750Z,99.97
2023-02-14T13:51:53.064Z,100.00
2023-02-14T13:56:57.923Z,100.00
2023-02-14T14:02:28.328Z,100.00
2023-02-14T14:07:33.305Z,99.94
2023-02-14T14:12:40.489Z,100.00
2023-02-14T14:17:50.104Z,100.00
2023-02-14T14:22:58.708Z,100.00
2023-02-14T14:28:02.201Z,99.97
2023-02-14T14:33:26.997Z,100.00
2023-02-14T14:38:31.841Z,99.99
2023-02-14T14:43:39.481Z,99.99
2023-02-14T14:48:51.349Z,100.00
2023-02-14T14:53:57.461Z,100.00
2023-02-14T14:59:28.657Z,100.00
2023-02-14T15:04:36.079Z,100.00
2023-02-14T15:09:42.365Z,99.98
2023-02-14T15:14:54.675Z,99.99
2023-02-14T15:20:02.470Z,99.96
2023-02-14T15:25:18.501Z,100.00
2023-02-14T15:30:24.010Z,100.00
2023-02-14T15:35:33.589Z,100.00
2023-02-14T15:40:38.975Z,100.00
2023-02-14T15:45:45.135Z,100.00
2023-02-14T15:50:52.745Z,100.00
2023-02-14T15:56:09.324Z,100.00
2023-02-14T16:01:13.618Z,100.00
2023-02-14T16:06:34.075Z,100.00
2023-02-14T16:11:38.783Z,100.00
2023-02-14T16:17:00.294Z,100.00
2023-02-14T16:22:04.480Z,100.00
2023-02-14T16:27:07.966Z,100.00
2023-02-14T16:32:21.252Z,100.00
2023-02-14T16:37:35.010Z,100.00
2023-02-14T16:42:40.418Z,100.00
2023-02-14T16:47:47.085Z,100.00
2023-02-14T16:52:56.000Z,100.00
2023-02-14T16:58:01.855Z,100.00
2023-02-14T17:03:18.371Z,100.00
2023-02-14T17:08:21.828Z,100.00
2023-02-14T17:13:27.881Z,100.00
2023-02-14T17:18:33.427Z,100.00
2023-02-14T17:23:36.758Z,100.00
2023-02-14T17:28:40.166Z,100.00
2023-02-14T17:33:43.570Z,100.00
2023-02-14T17:38:47.058Z,100.00
2023-02-14T17:43:51.266Z,100.00
2023-02-14T17:48:55.451Z,100.00
2023-02-14T17:53:59.067Z,100.00
2023-02-14T17:59:02.423Z,100.00
2023-02-14T18:04:05.963Z,100.00
2023-02-14T18:09:09.463Z,100.00
2023-02-14T18:14:12.663Z,100.00
2023-02-14T18:19:17.157Z,100.00
2023-02-14T18:24:20.491Z,100.00
2023-02-14T18:29:24.653Z,100.00
2023-02-14T18:34:28.479Z,100.00
2023-02-14T18:39:32.881Z,100.00
2023-02-14T18:44:36.059Z,100.00
2023-02-14T18:49:39.497Z,100.00
2023-02-14T18:54:42.853Z,100.00
2023-02-14T18:59:46.082Z,100.00
2023-02-14T19:04:49.307Z,100.00
2023-02-14T19:09:52.868Z,100.00
2023-02-14T19:14:56.844Z,100.00
2023-02-14T19:20:00.205Z,100.00
2023-02-14T19:25:03.442Z,100.00
2023-02-14T19:30:07.975Z,100.00
2023-02-14T19:35:12.038Z,100.00
2023-02-14T19:40:15.493Z,100.00
2023-02-14T19:45:18.739Z,100.00
2023-02-14T19:50:22.309Z,100.00
2023-02-14T19:55:25.925Z,100.00
2023-02-14T20:00:29.624Z,100.00
2023-02-14T20:05:33.206Z,100.00
2023-02-14T20:10:36.348Z,100.00
2023-02-14T20:15:40.302Z,100.00
2023-02-14T20:21:03.006Z,100.00
2023-02-14T20:26:12.495Z,100.00
2023-02-14T20:31:19.657Z,100.00
2023-02-14T20:36:24.033Z,100.00
2023-02-14T20:41:28.565Z,100.00
2023-02-14T20:46:33.888Z,100.00
2023-02-14T20:51:37.031Z,100.00
2023-02-14T20:56:40.419Z,100.00
2023-02-14T21:01:43.896Z,100.00
2023-02-14T21:06:49.093Z,100.00
2023-02-14T21:11:54.191Z,100.00
2023-02-14T21:16:57.831Z,100.00
2023-02-14T21:22:21.464Z,100.00
2023-02-14T21:27:24.685Z,100.00
2023-02-14T21:32:28.727Z,100.00
2023-02-14T21:37:32.395Z,100.00
2023-02-14T21:42:35.583Z,100.00
2023-02-14T21:47:39.959Z,100.00
2023-02-14T21:52:43.100Z,100.00
2023-02-14T21:57:46.195Z,100.00
2023-02-14T22:02:49.304Z,100.00
2023-02-14T22:07:52.595Z,100.00
2023-02-14T22:12:55.684Z,100.00
2023-02-14T22:17:58.728Z,100.00
2023-02-14T22:23:01.888Z,100.00
2023-02-14T22:28:05.063Z,100.00
2023-02-14T22:33:08.158Z,100.00
2023-02-14T22:38:12.106Z,100.00
2023-02-14T22:43:16.704Z,100.00
2023-02-14T22:48:20.614Z,100.00
2023-02-14T22:53:23.807Z,100.00
2023-02-14T22:58:26.981Z,100.00
2023-02-14T23:03:31.140Z,100.00
2023-02-14T23:08:34.418Z,100.00
2023-02-14T23:13:56.722Z,100.00
2023-02-14T23:19:26.082Z,100.00
2023-02-14T23:24:29.241Z,100.00
2023-02-14T23:29:32.919Z,100.00
2023-02-14T23:34:39.272Z,100.00
2023-02-14T23:39:42.546Z,100.00
2023-02-14T23:44:46.291Z,100.00
2023-02-14T23:49:49.812Z,100.00
2023-02-14T23:54:53.089Z,100.00
2023-02-14T23:59:56.436Z,100.00
